sensor_id;sensor_type;location;lat;lon;timestamp;temperature;humidity
5520;DHT22;2782;52.362;10.012;2022-08-21T00:01:49;21.80;64.00
5520;DHT22;2782;52.362;10.012;2022-08-21T00:08:31;21.70;64.20
5520;DHT22;2782;52.362;10.012;2022-08-21T00:15:15;21.60;64.40
5520;DHT22;2782;52.362;10.012;2022-08-21T00:21:59;21.50;64.80
5520;DHT22;2782;52.362;10.012;2022-08-21T00:28:40;21.40;64.70
5520;DHT22;2782;52.362;10.012;2022-08-21T00:35:24;21.40;64.80
5520;DHT22;2782;52.362;10.012;2022-08-21T00:42:08;21.30;64.80
5520;DHT22;2782;52.362;10.012;2022-08-21T00:48:50;21.20;65.20
5520;DHT22;2782;52.362;10.012;2022-08-21T00:55:32;21.20;65.20
5520;DHT22;2782;52.362;10.012;2022-08-21T01:02:16;21.20;65.40
5520;DHT22;2782;52.362;10.012;2022-08-21T01:08:58;21.20;65.80
5520;DHT22;2782;52.362;10.012;2022-08-21T01:15:43;21.10;64.80
5520;DHT22;2782;52.362;10.012;2022-08-21T01:22:27;21.00;64.10
5520;DHT22;2782;52.362;10.012;2022-08-21T01:29:13;20.90;64.90
5520;DHT22;2782;52.362;10.012;2022-08-21T01:35:56;20.90;65.80
5520;DHT22;2782;52.362;10.012;2022-08-21T01:42:39;20.90;65.00
5520;DHT22;2782;52.362;10.012;2022-08-21T01:49:21;20.80;64.30
5520;DHT22;2782;52.362;10.012;2022-08-21T01:56:05;20.80;64.40
5520;DHT22;2782;52.362;10.012;2022-08-21T02:02:48;20.70;63.80
5520;DHT22;2782;52.362;10.012;2022-08-21T02:09:30;20.70;63.70
5520;DHT22;2782;52.362;10.012;2022-08-21T02:16:13;20.60;64.60
5520;DHT22;2782;52.362;10.012;2022-08-21T02:22:57;20.50;64.60
5520;DHT22;2782;52.362;10.012;2022-08-21T02:29:38;20.40;64.00
5520;DHT22;2782;52.362;10.012;2022-08-21T02:36:20;20.30;64.60
5520;DHT22;2782;52.362;10.012;2022-08-21T02:43:04;20.40;65.20
5520;DHT22;2782;52.362;10.012;2022-08-21T02:49:46;20.30;64.90
5520;DHT22;2782;52.362;10.012;2022-08-21T02:56:28;20.30;65.00
5520;DHT22;2782;52.362;10.012;2022-08-21T03:03:11;20.20;65.00
5520;DHT22;2782;52.362;10.012;2022-08-21T03:09:55;20.10;65.00
5520;DHT22;2782;52.362;10.012;2022-08-21T03:16:36;20.10;65.10
5520;DHT22;2782;52.362;10.012;2022-08-21T03:23:19;20.00;64.90
5520;DHT22;2782;52.362;10.012;2022-08-21T03:30:03;19.90;64.90
5520;DHT22;2782;52.362;10.012;2022-08-21T03:36:45;19.80;65.00
5520;DHT22;2782;52.362;10.012;2022-08-21T03:43:28;19.80;65.20
5520;DHT22;2782;52.362;10.012;2022-08-21T03:50:09;19.80;65.60
5520;DHT22;2782;52.362;10.012;2022-08-21T03:56:51;19.80;66.10
5520;DHT22;2782;52.362;10.012;2022-08-21T04:03:36;19.70;65.70
5520;DHT22;2782;52.362;10.012;2022-08-21T04:10:18;19.70;65.10
5520;DHT22;2782;52.362;10.012;2022-08-21T04:16:59;19.60;64.70
5520;DHT22;2782;52.362;10.012;2022-08-21T04:23:42;19.50;64.90
5520;DHT22;2782;52.362;10.012;2022-08-21T04:30:24;19.50;65.10
5520;DHT22;2782;52.362;10.012;2022-08-21T04:37:05;19.50;65.20
5520;DHT22;2782;52.362;10.012;2022-08-21T04:43:48;19.50;64.90
5520;DHT22;2782;52.362;10.012;2022-08-21T04:50:35;19.40;64.60
5520;DHT22;2782;52.362;10.012;2022-08-21T04:57:19;19.50;65.30
5520;DHT22;2782;52.362;10.012;2022-08-21T05:04:04;19.60;66.50
5520;DHT22;2782;52.362;10.012;2022-08-21T05:10:47;19.70;67.10
5520;DHT22;2782;52.362;10.012;2022-08-21T05:17:29;19.80;67.30
5520;DHT22;2782;52.362;10.012;2022-08-21T05:24:13;20.00;67.60
5520;DHT22;2782;52.362;10.012;2022-08-21T05:30:55;20.10;67.90
5520;DHT22;2782;52.362;10.012;2022-08-21T05:37:37;20.30;67.70
5520;DHT22;2782;52.362;10.012;2022-08-21T05:44:20;20.40;67.90
5520;DHT22;2782;52.362;10.012;2022-08-21T05:51:04;20.50;68.10
5520;DHT22;2782;52.362;10.012;2022-08-21T05:57:47;20.60;68.60
5520;DHT22;2782;52.362;10.012;2022-08-21T06:04:35;20.70;69.30
5520;DHT22;2782;52.362;10.012;2022-08-21T06:11:17;20.80;71.20
5520;DHT22;2782;52.362;10.012;2022-08-21T06:17:59;20.70;71.10
5520;DHT22;2782;52.362;10.012;2022-08-21T06:24:42;20.80;72.60
5520;DHT22;2782;52.362;10.012;2022-08-21T06:31:27;20.90;73.00
5520;DHT22;2782;52.362;10.012;2022-08-21T06:38:10;20.90;73.40
5520;DHT22;2782;52.362;10.012;2022-08-21T06:44:54;21.00;73.40
5520;DHT22;2782;52.362;10.012;2022-08-21T06:51:36;21.00;73.50
5520;DHT22;2782;52.362;10.012;2022-08-21T06:58:18;21.00;73.50
5520;DHT22;2782;52.362;10.012;2022-08-21T07:05:01;21.10;73.00
5520;DHT22;2782;52.362;10.012;2022-08-21T07:11:44;21.10;73.90
5520;DHT22;2782;52.362;10.012;2022-08-21T07:18:28;21.10;74.70
5520;DHT22;2782;52.362;10.012;2022-08-21T07:25:12;21.10;75.30
5520;DHT22;2782;52.362;10.012;2022-08-21T07:31:54;21.10;75.80
5520;DHT22;2782;52.362;10.012;2022-08-21T07:38:36;21.10;75.80
5520;DHT22;2782;52.362;10.012;2022-08-21T07:45:21;21.10;75.80
5520;DHT22;2782;52.362;10.012;2022-08-21T07:52:04;21.20;76.00
5520;DHT22;2782;52.362;10.012;2022-08-21T07:58:47;21.30;75.80
5520;DHT22;2782;52.362;10.012;2022-08-21T08:05:31;21.60;75.20
5520;DHT22;2782;52.362;10.012;2022-08-21T08:12:12;21.80;74.00
5520;DHT22;2782;52.362;10.012;2022-08-21T08:18:54;21.90;74.20
5520;DHT22;2782;52.362;10.012;2022-08-21T08:25:37;22.10;73.20
5520;DHT22;2782;52.362;10.012;2022-08-21T08:32:19;22.20;72.60
5520;DHT22;2782;52.362;10.012;2022-08-21T08:39:02;22.20;71.90
5520;DHT22;2782;52.362;10.012;2022-08-21T08:45:47;22.30;71.50
5520;DHT22;2782;52.362;10.012;2022-08-21T08:52:31;22.30;70.20
5520;DHT22;2782;52.362;10.012;2022-08-21T08:59:18;22.30;69.80
5520;DHT22;2782;52.362;10.012;2022-08-21T09:06:08;22.30;69.20
5520;DHT22;2782;52.362;10.012;2022-08-21T09:13:06;22.40;68.80
5520;DHT22;2782;52.362;10.012;2022-08-21T09:19:59;22.40;67.90
5520;DHT22;2782;52.362;10.012;2022-08-21T09:26:52;22.40;67.00
5520;DHT22;2782;52.362;10.012;2022-08-21T09:33:34;22.40;66.80
5520;DHT22;2782;52.362;10.012;2022-08-21T09:40:31;22.40;66.50
5520;DHT22;2782;52.362;10.012;2022-08-21T09:47:18;22.40;66.40
5520;DHT22;2782;52.362;10.012;2022-08-21T09:54:14;22.40;65.90
5520;DHT22;2782;52.362;10.012;2022-08-21T10:01:00;22.40;65.30
5520;DHT22;2782;52.362;10.012;2022-08-21T10:07:43;22.40;64.80
5520;DHT22;2782;52.362;10.012;2022-08-21T10:14:44;22.40;64.10
5520;DHT22;2782;52.362;10.012;2022-08-21T10:21:30;22.50;63.80
5520;DHT22;2782;52.362;10.012;2022-08-21T10:28:32;22.40;63.40
5520;DHT22;2782;52.362;10.012;2022-08-21T10:35:22;22.50;62.60
5520;DHT22;2782;52.362;10.012;2022-08-21T10:42:17;22.50;63.30
5520;DHT22;2782;52.362;10.012;2022-08-21T10:49:13;22.50;63.60
5520;DHT22;2782;52.362;10.012;2022-08-21T10:55:59;22.50;63.80
5520;DHT22;2782;52.362;10.012;2022-08-21T11:02:45;22.50;63.90
5520;DHT22;2782;52.362;10.012;2022-08-21T11:09:30;22.60;63.40
5520;DHT22;2782;52.362;10.012;2022-08-21T11:16:17;22.60;62.40
5520;DHT22;2782;52.362;10.012;2022-08-21T11:23:07;22.60;61.30
5520;DHT22;2782;52.362;10.012;2022-08-21T11:29:54;22.70;61.70
5520;DHT22;2782;52.362;10.012;2022-08-21T11:36:42;22.70;62.60
5520;DHT22;2782;52.362;10.012;2022-08-21T11:43:34;22.70;60.70
5520;DHT22;2782;52.362;10.012;2022-08-21T11:50:21;22.70;62.00
5520;DHT22;2782;52.362;10.012;2022-08-21T11:57:07;22.70;60.90
5520;DHT22;2782;52.362;10.012;2022-08-21T12:03:57;22.70;60.00
5520;DHT22;2782;52.362;10.012;2022-08-21T12:10:42;22.70;59.70
5520;DHT22;2782;52.362;10.012;2022-08-21T12:17:39;22.70;60.00
5520;DHT22;2782;52.362;10.012;2022-08-21T12:24:32;22.70;60.20
5520;DHT22;2782;52.362;10.012;2022-08-21T12:31:24;22.70;57.60
5520;DHT22;2782;52.362;10.012;2022-08-21T12:38:07;22.70;57.50
5520;DHT22;2782;52.362;10.012;2022-08-21T12:44:55;22.70;57.40
5520;DHT22;2782;52.362;10.012;2022-08-21T12:51:48;22.80;58.10
5520;DHT22;2782;52.362;10.012;2022-08-21T12:58:31;22.80;57.10
5520;DHT22;2782;52.362;10.012;2022-08-21T13:05:16;22.80;57.20
5520;DHT22;2782;52.362;10.012;2022-08-21T13:12:06;22.90;57.50
5520;DHT22;2782;52.362;10.012;2022-08-21T13:18:56;22.90;56.80
5520;DHT22;2782;52.362;10.012;2022-08-21T13:25:39;23.00;55.30
5520;DHT22;2782;52.362;10.012;2022-08-21T13:32:25;23.00;56.30
5520;DHT22;2782;52.362;10.012;2022-08-21T13:39:10;23.00;58.10
5520;DHT22;2782;52.362;10.012;2022-08-21T13:45:54;23.00;57.30
5520;DHT22;2782;52.362;10.012;2022-08-21T13:52:47;23.00;56.50
5520;DHT22;2782;52.362;10.012;2022-08-21T13:59:33;23.10;55.50
5520;DHT22;2782;52.362;10.012;2022-08-21T14:06:17;23.10;54.60
5520;DHT22;2782;52.362;10.012;2022-08-21T14:13:03;23.10;53.80
5520;DHT22;2782;52.362;10.012;2022-08-21T14:19:46;23.20;54.40
5520;DHT22;2782;52.362;10.012;2022-08-21T14:26:28;23.20;54.10
5520;DHT22;2782;52.362;10.012;2022-08-21T14:33:12;23.20;54.50
5520;DHT22;2782;52.362;10.012;2022-08-21T14:39:54;23.20;54.30
5520;DHT22;2782;52.362;10.012;2022-08-21T14:46:36;23.20;54.40
5520;DHT22;2782;52.362;10.012;2022-08-21T14:53:19;23.20;54.50
5520;DHT22;2782;52.362;10.012;2022-08-21T15:00:01;23.20;54.90
5520;DHT22;2782;52.362;10.012;2022-08-21T15:06:43;23.20;54.10
5520;DHT22;2782;52.362;10.012;2022-08-21T15:13:26;23.30;54.00
5520;DHT22;2782;52.362;10.012;2022-08-21T15:20:09;23.30;54.00
5520;DHT22;2782;52.362;10.012;2022-08-21T15:26:52;23.30;54.20
5520;DHT22;2782;52.362;10.012;2022-08-21T15:33:36;23.30;53.80
5520;DHT22;2782;52.362;10.012;2022-08-21T15:40:18;23.30;53.50
5520;DHT22;2782;52.362;10.012;2022-08-21T15:47:00;23.30;55.10
5520;DHT22;2782;52.362;10.012;2022-08-21T15:53:43;23.40;55.30
5520;DHT22;2782;52.362;10.012;2022-08-21T16:00:25;23.40;56.40
5520;DHT22;2782;52.362;10.012;2022-08-21T16:07:08;23.40;54.80
5520;DHT22;2782;52.362;10.012;2022-08-21T16:13:51;23.40;58.00
5520;DHT22;2782;52.362;10.012;2022-08-21T16:20:33;23.40;58.30
5520;DHT22;2782;52.362;10.012;2022-08-21T16:27:15;23.40;62.50
5520;DHT22;2782;52.362;10.012;2022-08-21T16:34:00;23.40;60.10
5520;DHT22;2782;52.362;10.012;2022-08-21T16:40:42;23.40;57.00
5520;DHT22;2782;52.362;10.012;2022-08-21T16:47:24;23.40;55.90
5520;DHT22;2782;52.362;10.012;2022-08-21T16:54:07;23.40;56.00
5520;DHT22;2782;52.362;10.012;2022-08-21T17:00:48;23.40;55.30
5520;DHT22;2782;52.362;10.012;2022-08-21T17:07:30;23.40;54.60
5520;DHT22;2782;52.362;10.012;2022-08-21T17:14:16;23.40;54.70
5520;DHT22;2782;52.362;10.012;2022-08-21T17:20:58;23.40;54.70
5520;DHT22;2782;52.362;10.012;2022-08-21T17:27:43;23.30;54.70
5520;DHT22;2782;52.362;10.012;2022-08-21T17:34:26;23.30;54.40
5520;DHT22;2782;52.362;10.012;2022-08-21T17:41:09;23.30;54.60
5520;DHT22;2782;52.362;10.012;2022-08-21T17:47:50;23.30;55.20
5520;DHT22;2782;52.362;10.012;2022-08-21T17:54:34;23.30;55.50
5520;DHT22;2782;52.362;10.012;2022-08-21T18:01:17;23.30;55.60
5520;DHT22;2782;52.362;10.012;2022-08-21T18:07:58;23.30;55.50
5520;DHT22;2782;52.362;10.012;2022-08-21T18:14:42;23.20;55.80
5520;DHT22;2782;52.362;10.012;2022-08-21T18:21:24;23.50;56.00
5520;DHT22;2782;52.362;10.012;2022-08-21T18:28:06;23.50;56.30
5520;DHT22;2782;52.362;10.012;2022-08-21T18:34:51;23.40;56.60
5520;DHT22;2782;52.362;10.012;2022-08-21T18:41:32;23.40;56.90
5520;DHT22;2782;52.362;10.012;2022-08-21T18:48:15;23.40;57.20
5520;DHT22;2782;52.362;10.012;2022-08-21T18:54:58;23.40;57.40
5520;DHT22;2782;52.362;10.012;2022-08-21T19:01:41;23.40;57.70
5520;DHT22;2782;52.362;10.012;2022-08-21T19:08:23;23.40;58.00
5520;DHT22;2782;52.362;10.012;2022-08-21T19:15:10;23.40;58.20
5520;DHT22;2782;52.362;10.012;2022-08-21T19:21:52;23.40;58.40
5520;DHT22;2782;52.362;10.012;2022-08-21T19:28:36;23.40;58.70
5520;DHT22;2782;52.362;10.012;2022-08-21T19:35:20;23.40;58.90
5520;DHT22;2782;52.362;10.012;2022-08-21T19:42:01;23.40;59.00
5520;DHT22;2782;52.362;10.012;2022-08-21T19:48:43;23.40;59.30
5520;DHT22;2782;52.362;10.012;2022-08-21T19:55:26;23.40;59.60
5520;DHT22;2782;52.362;10.012;2022-08-21T20:02:09;23.40;59.40
5520;DHT22;2782;52.362;10.012;2022-08-21T20:08:51;23.40;59.60
5520;DHT22;2782;52.362;10.012;2022-08-21T20:15:35;23.40;59.90
5520;DHT22;2782;52.362;10.012;2022-08-21T20:22:17;23.50;60.10
5520;DHT22;2782;52.362;10.012;2022-08-21T20:28:58;23.40;59.80
5520;DHT22;2782;52.362;10.012;2022-08-21T20:35:41;23.40;60.00
5520;DHT22;2782;52.362;10.012;2022-08-21T20:42:27;23.40;60.00
5520;DHT22;2782;52.362;10.012;2022-08-21T20:49:10;23.40;60.20
5520;DHT22;2782;52.362;10.012;2022-08-21T20:55:57;23.40;60.20
5520;DHT22;2782;52.362;10.012;2022-08-21T21:02:55;23.40;60.40
5520;DHT22;2782;52.362;10.012;2022-08-21T21:09:41;23.40;60.40
5520;DHT22;2782;52.362;10.012;2022-08-21T21:16:30;23.30;60.50
5520;DHT22;2782;52.362;10.012;2022-08-21T21:23:17;23.30;60.60
5520;DHT22;2782;52.362;10.012;2022-08-21T21:30:03;23.30;60.80
5520;DHT22;2782;52.362;10.012;2022-08-21T21:36:50;23.30;60.50
5520;DHT22;2782;52.362;10.012;2022-08-21T21:43:43;23.30;61.40
5520;DHT22;2782;52.362;10.012;2022-08-21T21:50:37;23.40;61.70
5520;DHT22;2782;52.362;10.012;2022-08-21T21:57:36;23.40;62.00
5520;DHT22;2782;52.362;10.012;2022-08-21T22:04:26;23.40;61.70
5520;DHT22;2782;52.362;10.012;2022-08-21T22:11:16;23.40;61.90
5520;DHT22;2782;52.362;10.012;2022-08-21T22:18:05;23.30;61.90
5520;DHT22;2782;52.362;10.012;2022-08-21T22:24:52;23.30;62.10
5520;DHT22;2782;52.362;10.012;2022-08-21T22:31:37;23.30;62.30
5520;DHT22;2782;52.362;10.012;2022-08-21T22:38:30;23.30;62.40
5520;DHT22;2782;52.362;10.012;2022-08-21T22:45:19;23.30;62.60
5520;DHT22;2782;52.362;10.012;2022-08-21T22:52:10;23.30;62.90
5520;DHT22;2782;52.362;10.012;2022-08-21T22:58:58;23.30;63.00
5520;DHT22;2782;52.362;10.012;2022-08-21T23:05:40;23.30;63.20
5520;DHT22;2782;52.362;10.012;2022-08-21T23:12:25;23.30;63.40
5520;DHT22;2782;52.362;10.012;2022-08-21T23:19:13;23.20;63.40
5520;DHT22;2782;52.362;10.012;2022-08-21T23:26:12;23.20;63.60
5520;DHT22;2782;52.362;10.012;2022-08-21T23:33:10;23.20;63.80
5520;DHT22;2782;52.362;10.012;2022-08-21T23:40:06;23.20;63.80
5520;DHT22;2782;52.362;10.012;2022-08-21T23:47:00;23.20;63.90
5520;DHT22;2782;52.362;10.012;2022-08-21T23:53:53;23.20;64.10
